sensor_id;sensor_type;location;lat;lon;timestamp;pressure;altitude;pressure_sealevel;temperature;humidity
46412;BME280;32113;42.012;24.870;2023-03-13T00:01:38;99331.41;;;10.85;31.14
46412;BME280;32113;42.012;24.870;2023-03-13T00:04:04;99329.69;;;10.88;31.40
46412;BME280;32113;42.012;24.870;2023-03-13T00:06:32;99329.72;;;10.87;31.98
46412;BME280;32113;42.012;24.870;2023-03-13T00:08:58;99333.22;;;10.75;32.62
46412;BME280;32113;42.012;24.870;2023-03-13T00:11:27;99334.13;;;10.64;32.66
46412;BME280;32113;42.012;24.870;2023-03-13T00:13:54;99336.78;;;10.47;32.92
46412;BME280;32113;42.012;24.870;2023-03-13T00:16:19;99340.22;;;10.37;32.54
46412;BME280;32113;42.012;24.870;2023-03-13T00:18:47;99336.91;;;10.16;33.07
46412;BME280;32113;42.012;24.870;2023-03-13T00:21:13;99336.03;;;10.19;33.14
46412;BME280;32113;42.012;24.870;2023-03-13T00:23:39;99336.09;;;10.02;33.69
46412;BME280;32113;42.012;24.870;2023-03-13T00:26:07;99342.13;;;9.86;33.96
46412;BME280;32113;42.012;24.870;2023-03-13T00:28:34;99341.28;;;9.77;34.23
46412;BME280;32113;42.012;24.870;2023-03-13T00:31:27;99340.47;;;9.60;34.23
46412;BME280;32113;42.012;24.870;2023-03-13T00:33:57;99340.50;;;9.45;34.46
46412;BME280;32113;42.012;24.870;2023-03-13T00:36:24;99339.66;;;9.26;34.36
46412;BME280;32113;42.012;24.870;2023-03-13T00:38:51;99337.97;;;9.22;34.69
46412;BME280;32113;42.012;24.870;2023-03-13T00:41:19;99332.81;;;9.15;34.93
46412;BME280;32113;42.012;24.870;2023-03-13T00:43:46;99339.66;;;9.04;35.04
46412;BME280;32113;42.012;24.870;2023-03-13T00:46:13;99336.22;;;8.96;35.24
46412;BME280;32113;42.012;24.870;2023-03-13T00:48:39;99333.66;;;8.94;35.58
46412;BME280;32113;42.012;24.870;2023-03-13T00:51:05;99331.94;;;8.74;35.65
46412;BME280;32113;42.012;24.870;2023-03-13T00:53:32;99336.16;;;8.53;36.09
46412;BME280;32113;42.012;24.870;2023-03-13T00:58:33;99333.44;;;8.13;36.14
46412;BME280;32113;42.012;24.870;2023-03-13T01:03:32;99339.22;;;7.79;37.40
46412;BME280;32113;42.012;24.870;2023-03-13T01:05:59;99342.63;;;7.75;36.91
46412;BME280;32113;42.012;24.870;2023-03-13T01:08:25;99343.41;;;7.61;37.66
46412;BME280;32113;42.012;24.870;2023-03-13T01:10:57;99347.63;;;7.59;37.75
46412;BME280;32113;42.012;24.870;2023-03-13T01:13:22;99350.88;;;7.36;37.98
46412;BME280;32113;42.012;24.870;2023-03-13T01:15:48;99348.16;;;7.15;38.60
46412;BME280;32113;42.012;24.870;2023-03-13T01:18:13;99343.00;;;7.10;38.32
46412;BME280;32113;42.012;24.870;2023-03-13T01:20:40;99349.69;;;6.97;39.19
46412;BME280;32113;42.012;24.870;2023-03-13T01:23:05;99347.03;;;6.84;39.79
46412;BME280;32113;42.012;24.870;2023-03-13T01:25:31;99345.34;;;6.85;39.39
46412;BME280;32113;42.012;24.870;2023-03-13T01:27:59;99342.66;;;6.73;40.08
46412;BME280;32113;42.012;24.870;2023-03-13T01:30:25;99351.06;;;6.62;40.15
46412;BME280;32113;42.012;24.870;2023-03-13T01:32:50;99345.00;;;6.52;40.99
46412;BME280;32113;42.012;24.870;2023-03-13T01:35:15;99349.31;;;6.58;41.08
46412;BME280;32113;42.012;24.870;2023-03-13T01:37:42;99348.59;;;6.72;39.89
46412;BME280;32113;42.012;24.870;2023-03-13T01:40:08;99350.47;;;6.90;39.85
46412;BME280;32113;42.012;24.870;2023-03-13T01:42:48;99348.81;;;6.93;40.18
46412;BME280;32113;42.012;24.870;2023-03-13T01:51:37;99355.03;;;6.37;41.57
46412;BME280;32113;42.012;24.870;2023-03-13T01:54:26;99364.53;;;6.52;41.33
46412;BME280;32113;42.012;24.870;2023-03-13T01:57:07;99365.50;;;6.62;41.06
46412;BME280;32113;42.012;24.870;2023-03-13T01:59:38;99370.53;;;6.55;40.95
46412;BME280;32113;42.012;24.870;2023-03-13T02:02:05;99368.69;;;6.43;41.26
46412;BME280;32113;42.012;24.870;2023-03-13T02:04:35;99376.38;;;6.47;41.16
46412;BME280;32113;42.012;24.870;2023-03-13T02:07:06;99377.06;;;6.33;41.23
46412;BME280;32113;42.012;24.870;2023-03-13T02:09:36;99372.03;;;6.38;41.10
46412;BME280;32113;42.012;24.870;2023-03-13T02:12:08;99384.75;;;6.35;41.48
46412;BME280;32113;42.012;24.870;2023-03-13T02:14:36;99386.53;;;6.43;40.97
46412;BME280;32113;42.012;24.870;2023-03-13T02:17:03;99400.06;;;6.38;41.38
46412;BME280;32113;42.012;24.870;2023-03-13T02:19:44;99389.97;;;6.44;41.18
46412;BME280;32113;42.012;24.870;2023-03-13T02:22:30;99401.06;;;6.52;41.03
46412;BME280;32113;42.012;24.870;2023-03-13T02:27:51;99406.59;;;6.17;42.12
46412;BME280;32113;42.012;24.870;2023-03-13T02:30:19;99419.38;;;6.18;41.50
46412;BME280;32113;42.012;24.870;2023-03-13T02:32:45;99415.94;;;6.15;41.60
46412;BME280;32113;42.012;24.870;2023-03-13T02:35:13;99414.97;;;6.10;42.57
46412;BME280;32113;42.012;24.870;2023-03-13T02:37:45;99417.47;;;6.05;42.41
46412;BME280;32113;42.012;24.870;2023-03-13T02:40:15;99426.63;;;5.95;42.46
46412;BME280;32113;42.012;24.870;2023-03-13T02:42:44;99425.03;;;6.02;43.03
46412;BME280;32113;42.012;24.870;2023-03-13T02:45:13;99432.00;;;6.12;42.58
46412;BME280;32113;42.012;24.870;2023-03-13T02:47:39;99426.19;;;6.21;42.16
46412;BME280;32113;42.012;24.870;2023-03-13T02:50:04;99425.47;;;6.31;42.18
46412;BME280;32113;42.012;24.870;2023-03-13T02:52:33;99435.75;;;6.39;41.89
46412;BME280;32113;42.012;24.870;2023-03-13T02:55:12;99443.53;;;6.49;41.51
46412;BME280;32113;42.012;24.870;2023-03-13T02:57:39;99449.63;;;6.60;41.85
46412;BME280;32113;42.012;24.870;2023-03-13T03:00:06;99462.25;;;6.52;41.38
46412;BME280;32113;42.012;24.870;2023-03-13T03:02:36;99459.72;;;6.51;42.00
46412;BME280;32113;42.012;24.870;2023-03-13T03:05:02;99459.91;;;6.66;41.52
46412;BME280;32113;42.012;24.870;2023-03-13T03:07:27;99472.63;;;6.65;41.25
46412;BME280;32113;42.012;24.870;2023-03-13T03:09:54;99474.00;;;6.39;42.34
46412;BME280;32113;42.012;24.870;2023-03-13T03:12:19;99478.81;;;6.19;42.75
46412;BME280;32113;42.012;24.870;2023-03-13T03:14:45;99478.28;;;5.85;43.46
46412;BME280;32113;42.012;24.870;2023-03-13T03:17:10;99482.50;;;5.83;43.74
46412;BME280;32113;42.012;24.870;2023-03-13T03:19:36;99489.50;;;5.96;43.38
46412;BME280;32113;42.012;24.870;2023-03-13T03:22:01;99499.16;;;6.16;42.63
46412;BME280;32113;42.012;24.870;2023-03-13T03:24:27;99502.78;;;6.30;42.17
46412;BME280;32113;42.012;24.870;2023-03-13T03:26:52;99505.53;;;6.46;42.60
46412;BME280;32113;42.012;24.870;2023-03-13T03:29:18;99495.47;;;6.57;41.72
46412;BME280;32113;42.012;24.870;2023-03-13T03:31:43;99503.22;;;6.65;41.33
46412;BME280;32113;42.012;24.870;2023-03-13T03:34:09;99505.06;;;6.74;40.93
46412;BME280;32113;42.012;24.870;2023-03-13T03:36:34;99510.28;;;6.83;40.76
46412;BME280;32113;42.012;24.870;2023-03-13T03:39:00;99517.22;;;6.98;40.46
46412;BME280;32113;42.012;24.870;2023-03-13T03:41:25;99515.63;;;7.06;40.26
46412;BME280;32113;42.012;24.870;2023-03-13T03:43:50;99513.94;;;7.08;39.97
46412;BME280;32113;42.012;24.870;2023-03-13T03:46:16;99520.81;;;7.14;40.02
46412;BME280;32113;42.012;24.870;2023-03-13T03:48:42;99513.00;;;7.02;40.33
46412;BME280;32113;42.012;24.870;2023-03-13T03:51:08;99521.38;;;6.88;40.86
46412;BME280;32113;42.012;24.870;2023-03-13T03:53:33;99533.66;;;6.54;41.74
46412;BME280;32113;42.012;24.870;2023-03-13T03:55:59;99534.34;;;6.39;42.10
46412;BME280;32113;42.012;24.870;2023-03-13T03:58:25;99537.66;;;6.33;42.26
46412;BME280;32113;42.012;24.870;2023-03-13T04:00:50;99530.34;;;6.02;42.88
46412;BME280;32113;42.012;24.870;2023-03-13T04:03:16;99533.91;;;5.60;44.10
46412;BME280;32113;42.012;24.870;2023-03-13T04:05:42;99539.66;;;5.49;44.61
46412;BME280;32113;42.012;24.870;2023-03-13T04:08:08;99539.31;;;5.31;45.50
46412;BME280;32113;42.012;24.870;2023-03-13T04:10:34;99544.78;;;5.06;46.41
46412;BME280;32113;42.012;24.870;2023-03-13T04:13:00;99537.75;;;4.94;46.92
46412;BME280;32113;42.012;24.870;2023-03-13T04:15:25;99545.50;;;5.00;47.13
46412;BME280;32113;42.012;24.870;2023-03-13T04:17:51;99549.53;;;4.89;47.30
46412;BME280;32113;42.012;24.870;2023-03-13T04:20:16;99559.50;;;4.80;47.98
46412;BME280;32113;42.012;24.870;2023-03-13T04:22:42;99557.94;;;4.86;47.76
46412;BME280;32113;42.012;24.870;2023-03-13T04:25:08;99564.47;;;4.75;47.85
46412;BME280;32113;42.012;24.870;2023-03-13T04:27:34;99565.25;;;4.72;47.95
46412;BME280;32113;42.012;24.870;2023-03-13T04:29:59;99566.59;;;4.96;47.81
46412;BME280;32113;42.012;24.870;2023-03-13T04:32:25;99575.56;;;5.19;46.91
46412;BME280;32113;42.012;24.870;2023-03-13T04:34:50;99580.94;;;5.34;46.08
46412;BME280;32113;42.012;24.870;2023-03-13T04:37:16;99583.81;;;5.51;45.29
46412;BME280;32113;42.012;24.870;2023-03-13T04:39:41;99591.47;;;5.53;44.68
46412;BME280;32113;42.012;24.870;2023-03-13T04:42:11;99599.34;;;5.65;44.76
46412;BME280;32113;42.012;24.870;2023-03-13T04:44:37;99594.44;;;5.75;44.59
46412;BME280;32113;42.012;24.870;2023-03-13T04:47:03;99605.63;;;5.85;44.42
46412;BME280;32113;42.012;24.870;2023-03-13T04:49:29;99594.59;;;5.84;44.36
46412;BME280;32113;42.012;24.870;2023-03-13T04:51:54;99607.47;;;5.92;44.02
46412;BME280;32113;42.012;24.870;2023-03-13T04:54:20;99615.13;;;5.95;44.55
46412;BME280;32113;42.012;24.870;2023-03-13T04:56:46;99615.41;;;6.09;43.64
46412;BME280;32113;42.012;24.870;2023-03-13T04:59:13;99616.38;;;6.16;43.40
46412;BME280;32113;42.012;24.870;2023-03-13T05:01:39;99619.00;;;6.21;43.69
46412;BME280;32113;42.012;24.870;2023-03-13T05:04:05;99620.53;;;6.12;43.78
46412;BME280;32113;42.012;24.870;2023-03-13T05:06:30;99619.91;;;6.26;43.61
46412;BME280;32113;42.012;24.870;2023-03-13T05:08:55;99625.94;;;6.31;43.59
46412;BME280;32113;42.012;24.870;2023-03-13T05:11:21;99627.59;;;6.27;43.60
46412;BME280;32113;42.012;24.870;2023-03-13T05:13:47;99634.06;;;6.07;43.93
46412;BME280;32113;42.012;24.870;2023-03-13T05:16:12;99631.09;;;5.85;44.75
46412;BME280;32113;42.012;24.870;2023-03-13T05:18:38;99633.88;;;5.52;46.05
46412;BME280;32113;42.012;24.870;2023-03-13T05:21:04;99646.31;;;5.37;46.45
46412;BME280;32113;42.012;24.870;2023-03-13T05:23:29;99647.78;;;5.25;46.06
46412;BME280;32113;42.012;24.870;2023-03-13T05:25:55;99641.06;;;5.29;46.54
46412;BME280;32113;42.012;24.870;2023-03-13T05:28:20;99651.69;;;5.11;46.62
46412;BME280;32113;42.012;24.870;2023-03-13T05:30:46;99648.56;;;4.84;47.25
46412;BME280;32113;42.012;24.870;2023-03-13T05:33:11;99652.81;;;4.84;47.78
46412;BME280;32113;42.012;24.870;2023-03-13T05:35:36;99648.41;;;4.77;47.81
46412;BME280;32113;42.012;24.870;2023-03-13T05:38:02;99653.69;;;4.86;48.00
46412;BME280;32113;42.012;24.870;2023-03-13T05:40:27;99655.81;;;4.67;48.40
46412;BME280;32113;42.012;24.870;2023-03-13T05:42:53;99655.00;;;4.68;48.83
46412;BME280;32113;42.012;24.870;2023-03-13T05:45:18;99655.00;;;4.68;48.83
46412;BME280;32113;42.012;24.870;2023-03-13T05:47:44;99662.13;;;4.83;48.68
46412;BME280;32113;42.012;24.870;2023-03-13T05:50:09;99663.41;;;5.03;48.45
46412;BME280;32113;42.012;24.870;2023-03-13T05:52:35;99662.22;;;5.26;47.64
46412;BME280;32113;42.012;24.870;2023-03-13T05:55:00;99671.19;;;5.50;46.56
46412;BME280;32113;42.012;24.870;2023-03-13T05:57:26;99669.69;;;5.62;46.27
46412;BME280;32113;42.012;24.870;2023-03-13T05:59:51;99665.59;;;5.69;45.74
46412;BME280;32113;42.012;24.870;2023-03-13T06:02:17;99677.56;;;5.73;45.20
46412;BME280;32113;42.012;24.870;2023-03-13T06:04:42;99688.91;;;5.89;45.89
46412;BME280;32113;42.012;24.870;2023-03-13T06:07:07;99686.84;;;6.15;45.62
46412;BME280;32113;42.012;24.870;2023-03-13T06:09:33;99682.16;;;6.37;44.66
46412;BME280;32113;42.012;24.870;2023-03-13T06:11:58;99689.22;;;6.55;44.19
46412;BME280;32113;42.012;24.870;2023-03-13T06:14:24;99688.72;;;6.77;44.33
46412;BME280;32113;42.012;24.870;2023-03-13T06:16:49;99693.22;;;6.93;43.44
46412;BME280;32113;42.012;24.870;2023-03-13T06:19:15;99692.53;;;7.05;42.74
46412;BME280;32113;42.012;24.870;2023-03-13T06:21:41;99696.19;;;7.25;41.97
46412;BME280;32113;42.012;24.870;2023-03-13T06:24:06;99699.81;;;7.41;41.33
46412;BME280;32113;42.012;24.870;2023-03-13T06:26:32;99700.03;;;7.56;41.13
46412;BME280;32113;42.012;24.870;2023-03-13T06:28:57;99705.28;;;7.70;40.34
46412;BME280;32113;42.012;24.870;2023-03-13T06:31:22;99702.81;;;7.75;38.61
46412;BME280;32113;42.012;24.870;2023-03-13T06:33:52;99708.84;;;7.85;39.04
46412;BME280;32113;42.012;24.870;2023-03-13T06:36:17;99709.72;;;7.85;39.03
46412;BME280;32113;42.012;24.870;2023-03-13T06:38:43;99707.19;;;7.88;38.70
46412;BME280;32113;42.012;24.870;2023-03-13T06:41:08;99704.84;;;8.06;38.18
46412;BME280;32113;42.012;24.870;2023-03-13T06:43:34;99699.72;;;8.07;38.87
46412;BME280;32113;42.012;24.870;2023-03-13T06:46:03;99702.38;;;8.17;38.77
46412;BME280;32113;42.012;24.870;2023-03-13T06:48:29;99699.00;;;8.18;38.84
46412;BME280;32113;42.012;24.870;2023-03-13T06:50:54;99699.53;;;7.90;38.84
46412;BME280;32113;42.012;24.870;2023-03-13T06:53:21;99704.69;;;7.93;38.95
46412;BME280;32113;42.012;24.870;2023-03-13T06:55:46;99696.97;;;7.88;39.02
46412;BME280;32113;42.012;24.870;2023-03-13T06:58:13;99691.94;;;7.95;39.74
46412;BME280;32113;42.012;24.870;2023-03-13T07:00:38;99702.28;;;8.07;39.46
46412;BME280;32113;42.012;24.870;2023-03-13T07:03:06;99692.16;;;8.17;39.58
46412;BME280;32113;42.012;24.870;2023-03-13T07:05:32;99694.78;;;8.26;38.48
46412;BME280;32113;42.012;24.870;2023-03-13T07:07:58;99694.88;;;8.35;38.66
46412;BME280;32113;42.012;24.870;2023-03-13T07:10:23;99696.75;;;8.52;37.93
46412;BME280;32113;42.012;24.870;2023-03-13T07:12:49;99691.72;;;8.60;38.09
46412;BME280;32113;42.012;24.870;2023-03-13T07:15:14;99700.28;;;8.66;38.25
46412;BME280;32113;42.012;24.870;2023-03-13T07:17:39;99699.53;;;8.78;38.73
46412;BME280;32113;42.012;24.870;2023-03-13T07:20:05;99691.06;;;8.89;38.90
46412;BME280;32113;42.012;24.870;2023-03-13T07:22:33;99685.16;;;8.99;38.74
46412;BME280;32113;42.012;24.870;2023-03-13T07:24:59;99689.50;;;9.11;38.40
46412;BME280;32113;42.012;24.870;2023-03-13T07:27:24;99685.28;;;9.16;38.17
46412;BME280;32113;42.012;24.870;2023-03-13T07:29:49;99685.28;;;9.16;37.88
46412;BME280;32113;42.012;24.870;2023-03-13T07:32:16;99694.72;;;9.31;37.78
46412;BME280;32113;42.012;24.870;2023-03-13T07:34:41;99687.06;;;9.28;37.55
46412;BME280;32113;42.012;24.870;2023-03-13T07:37:13;99686.19;;;9.32;37.58
46412;BME280;32113;42.012;24.870;2023-03-13T07:39:40;99686.25;;;9.40;37.22
46412;BME280;32113;42.012;24.870;2023-03-13T07:42:07;99677.75;;;9.49;37.68
46412;BME280;32113;42.012;24.870;2023-03-13T07:44:33;99673.50;;;9.56;37.73
46412;BME280;32113;42.012;24.870;2023-03-13T07:46:59;99671.81;;;9.61;37.82
46412;BME280;32113;42.012;24.870;2023-03-13T07:49:25;99674.44;;;9.75;37.01
46412;BME280;32113;42.012;24.870;2023-03-13T07:51:50;99675.28;;;9.82;36.45
46412;BME280;32113;42.012;24.870;2023-03-13T07:54:16;99669.34;;;9.91;36.69
46412;BME280;32113;42.012;24.870;2023-03-13T07:56:41;99671.06;;;10.03;36.92
46412;BME280;32113;42.012;24.870;2023-03-13T07:59:07;99679.63;;;10.09;36.72
46412;BME280;32113;42.012;24.870;2023-03-13T08:01:32;99675.38;;;10.16;36.57
46412;BME280;32113;42.012;24.870;2023-03-13T08:03:58;99674.53;;;10.25;36.83
46412;BME280;32113;42.012;24.870;2023-03-13T08:06:29;99671.97;;;10.33;36.91
46412;BME280;32113;42.012;24.870;2023-03-13T08:08:56;99669.41;;;10.37;36.16
46412;BME280;32113;42.012;24.870;2023-03-13T08:11:23;99670.25;;;10.38;35.84
46412;BME280;32113;42.012;24.870;2023-03-13T08:13:50;99675.41;;;10.36;36.60
46412;BME280;32113;42.012;24.870;2023-03-13T08:16:34;99677.13;;;10.39;36.05
46412;BME280;32113;42.012;24.870;2023-03-13T08:19:01;99673.72;;;10.49;35.96
46412;BME280;32113;42.012;24.870;2023-03-13T08:21:34;99672.00;;;10.56;36.10
46412;BME280;32113;42.012;24.870;2023-03-13T08:24:03;99679.72;;;10.48;35.93
46412;BME280;32113;42.012;24.870;2023-03-13T08:26:30;99671.16;;;10.56;35.88
46412;BME280;32113;42.012;24.870;2023-03-13T08:29:00;99662.59;;;10.61;35.62
46412;BME280;32113;42.012;24.870;2023-03-13T08:31:35;99657.47;;;10.72;34.88
46412;BME280;32113;42.012;24.870;2023-03-13T08:34:01;99657.44;;;10.78;35.13
46412;BME280;32113;42.012;24.870;2023-03-13T08:36:34;99659.97;;;10.94;35.21
46412;BME280;32113;42.012;24.870;2023-03-13T08:39:03;99659.97;;;11.00;34.55
46412;BME280;32113;42.012;24.870;2023-03-13T08:41:32;99659.06;;;11.14;34.09
46412;BME280;32113;42.012;24.870;2023-03-13T08:43:59;99654.72;;;11.35;34.20
46412;BME280;32113;42.012;24.870;2023-03-13T08:46:25;99659.88;;;11.35;32.79
46412;BME280;32113;42.012;24.870;2023-03-13T08:48:51;99653.94;;;11.19;32.54
46412;BME280;32113;42.012;24.870;2023-03-13T08:51:18;99653.91;;;11.23;32.76
46412;BME280;32113;42.012;24.870;2023-03-13T08:53:44;99650.47;;;11.29;32.32
46412;BME280;32113;42.012;24.870;2023-03-13T08:56:12;99658.97;;;11.48;33.08
46412;BME280;32113;42.012;24.870;2023-03-13T08:58:37;99656.34;;;11.57;31.85
46412;BME280;32113;42.012;24.870;2023-03-13T09:01:07;99661.41;;;11.73;31.23
46412;BME280;32113;42.012;24.870;2023-03-13T09:03:34;99655.34;;;11.83;31.07
46412;BME280;32113;42.012;24.870;2023-03-13T09:06:00;99662.94;;;12.01;30.50
46412;BME280;32113;42.012;24.870;2023-03-13T09:08:27;99652.63;;;12.16;30.93
46412;BME280;32113;42.012;24.870;2023-03-13T09:11:01;99653.50;;;12.11;30.81
46412;BME280;32113;42.012;24.870;2023-03-13T09:13:28;99649.19;;;12.14;31.24
46412;BME280;32113;42.012;24.870;2023-03-13T09:15:59;99654.13;;;12.42;31.01
46412;BME280;32113;42.012;24.870;2023-03-13T09:18:25;99649.50;;;12.79;30.46
46412;BME280;32113;42.012;24.870;2023-03-13T09:20:51;99649.22;;;13.08;29.13
46412;BME280;32113;42.012;24.870;2023-03-13T09:23:17;99650.59;;;13.37;29.53
46412;BME280;32113;42.012;24.870;2023-03-13T09:25:43;99635.56;;;13.71;28.85
46412;BME280;32113;42.012;24.870;2023-03-13T09:28:08;99641.34;;;13.88;26.86
46412;BME280;32113;42.012;24.870;2023-03-13T09:30:34;99639.22;;;14.15;27.39
46412;BME280;32113;42.012;24.870;2023-03-13T09:32:59;99635.53;;;14.32;26.88
46412;BME280;32113;42.012;24.870;2023-03-13T09:35:24;99635.66;;;14.75;26.51
46412;BME280;32113;42.012;24.870;2023-03-13T09:37:50;99638.09;;;14.84;25.78
46412;BME280;32113;42.012;24.870;2023-03-13T09:40:20;99634.28;;;15.04;26.09
46412;BME280;32113;42.012;24.870;2023-03-13T09:42:58;99634.84;;;15.20;25.17
46412;BME280;32113;42.012;24.870;2023-03-13T09:45:30;99625.94;;;15.33;24.65
46412;BME280;32113;42.012;24.870;2023-03-13T09:48:05;99622.06;;;15.55;24.42
46412;BME280;32113;42.012;24.870;2023-03-13T09:50:41;99626.13;;;15.65;24.51
46412;BME280;32113;42.012;24.870;2023-03-13T09:53:19;99622.03;;;15.96;24.26
46412;BME280;32113;42.012;24.870;2023-03-13T09:55:50;99609.53;;;16.13;22.38
46412;BME280;32113;42.012;24.870;2023-03-13T09:58:20;99614.41;;;16.27;21.80
46412;BME280;32113;42.012;24.870;2023-03-13T10:01:05;99615.06;;;16.34;21.80
46412;BME280;32113;42.012;24.870;2023-03-13T10:03:31;99596.19;;;16.31;22.21
46412;BME280;32113;42.012;24.870;2023-03-13T10:06:01;99602.19;;;16.33;21.88
46412;BME280;32113;42.012;24.870;2023-03-13T10:08:33;99601.09;;;16.41;21.66
46412;BME280;32113;42.012;24.870;2023-03-13T10:14:01;99589.75;;;16.46;21.78
46412;BME280;32113;42.012;24.870;2023-03-13T10:16:43;99577.25;;;16.28;21.38
46412;BME280;32113;42.012;24.870;2023-03-13T10:19:17;99578.78;;;16.36;21.35
46412;BME280;32113;42.012;24.870;2023-03-13T10:21:49;99571.69;;;16.42;20.94
46412;BME280;32113;42.012;24.870;2023-03-13T10:24:32;99566.03;;;16.61;20.62
46412;BME280;32113;42.012;24.870;2023-03-13T10:26:58;99571.81;;;16.71;19.86
46412;BME280;32113;42.012;24.870;2023-03-13T10:29:28;99562.00;;;16.51;20.23
46412;BME280;32113;42.012;24.870;2023-03-13T10:32:05;99567.09;;;16.54;21.14
46412;BME280;32113;42.012;24.870;2023-03-13T10:37:23;99560.50;;;16.42;20.32
46412;BME280;32113;42.012;24.870;2023-03-13T10:39:48;99565.31;;;16.56;20.80
46412;BME280;32113;42.012;24.870;2023-03-13T10:42:24;99556.66;;;16.57;20.86
46412;BME280;32113;42.012;24.870;2023-03-13T10:44:56;99556.44;;;16.65;20.93
46412;BME280;32113;42.012;24.870;2023-03-13T10:47:23;99552.03;;;16.68;20.66
46412;BME280;32113;42.012;24.870;2023-03-13T10:49:51;99548.16;;;16.84;20.21
46412;BME280;32113;42.012;24.870;2023-03-13T10:55:10;99540.72;;;16.39;20.19
46412;BME280;32113;42.012;24.870;2023-03-13T10:57:37;99540.97;;;16.30;20.75
46412;BME280;32113;42.012;24.870;2023-03-13T11:03:00;99534.78;;;16.34;21.38
46412;BME280;32113;42.012;24.870;2023-03-13T11:05:32;99530.88;;;16.52;20.95
46412;BME280;32113;42.012;24.870;2023-03-13T11:07:58;99523.63;;;16.65;21.12
46412;BME280;32113;42.012;24.870;2023-03-13T11:10:34;99517.94;;;16.83;20.95
46412;BME280;32113;42.012;24.870;2023-03-13T11:13:01;99507.31;;;16.92;20.96
46412;BME280;32113;42.012;24.870;2023-03-13T11:15:49;99509.19;;;16.87;20.72
46412;BME280;32113;42.012;24.870;2023-03-13T11:18:30;99507.81;;;17.05;20.54
46412;BME280;32113;42.012;24.870;2023-03-13T11:21:00;99501.66;;;17.09;19.78
46412;BME280;32113;42.012;24.870;2023-03-13T11:23:29;99501.16;;;16.96;19.97
46412;BME280;32113;42.012;24.870;2023-03-13T11:31:22;99481.16;;;16.71;20.25
46412;BME280;32113;42.012;24.870;2023-03-13T11:36:53;99484.81;;;16.94;19.93
46412;BME280;32113;42.012;24.870;2023-03-13T11:53:03;99470.88;;;16.98;18.95
46412;BME280;32113;42.012;24.870;2023-03-13T11:59:02;99458.69;;;17.00;18.78
46412;BME280;32113;42.012;24.870;2023-03-13T12:01:28;99451.94;;;16.94;18.94
46412;BME280;32113;42.012;24.870;2023-03-13T12:07:52;99433.47;;;16.77;19.76
46412;BME280;32113;42.012;24.870;2023-03-13T12:12:38;99419.88;;;16.99;17.77
46412;BME280;32113;42.012;24.870;2023-03-13T12:17:47;99424.38;;;16.92;17.77
46412;BME280;32113;42.012;24.870;2023-03-13T12:20:21;99425.97;;;16.37;18.18
46412;BME280;32113;42.012;24.870;2023-03-13T12:30:45;99430.47;;;15.99;18.69
46412;BME280;32113;42.012;24.870;2023-03-13T12:33:25;99419.56;;;16.19;19.20
46412;BME280;32113;42.012;24.870;2023-03-13T12:36:08;99418.28;;;16.34;19.30
46412;BME280;32113;42.012;24.870;2023-03-13T12:38:41;99416.97;;;16.51;19.32
46412;BME280;32113;42.012;24.870;2023-03-13T12:43:54;99421.69;;;16.66;18.00
46412;BME280;32113;42.012;24.870;2023-03-13T13:00:23;99419.34;;;16.87;18.94
46412;BME280;32113;42.012;24.870;2023-03-13T13:03:05;99421.75;;;16.93;19.57
46412;BME280;32113;42.012;24.870;2023-03-13T13:05:32;99423.19;;;17.04;19.06
46412;BME280;32113;42.012;24.870;2023-03-13T13:07:57;99417.00;;;17.08;18.83
46412;BME280;32113;42.012;24.870;2023-03-13T13:10:24;99416.81;;;16.86;17.76
46412;BME280;32113;42.012;24.870;2023-03-13T13:15:58;99421.50;;;16.42;18.30
46412;BME280;32113;42.012;24.870;2023-03-13T13:18:28;99417.97;;;16.45;18.22
46412;BME280;32113;42.012;24.870;2023-03-13T13:23:35;99418.75;;;16.49;18.19
46412;BME280;32113;42.012;24.870;2023-03-13T13:36:58;99397.66;;;16.61;18.10
46412;BME280;32113;42.012;24.870;2023-03-13T13:41:58;99391.44;;;16.95;18.75
46412;BME280;32113;42.012;24.870;2023-03-13T13:44:26;99395.63;;;17.00;17.20
46412;BME280;32113;42.012;24.870;2023-03-13T13:46:53;99394.81;;;16.99;17.41
46412;BME280;32113;42.012;24.870;2023-03-13T13:49:21;99387.00;;;17.01;17.40
46412;BME280;32113;42.012;24.870;2023-03-13T13:54:52;99379.69;;;17.14;17.37
46412;BME280;32113;42.012;24.870;2023-03-13T13:57:24;99383.66;;;17.24;17.00
46412;BME280;32113;42.012;24.870;2023-03-13T13:59:55;99383.59;;;17.27;17.11
46412;BME280;32113;42.012;24.870;2023-03-13T14:02:33;99384.41;;;17.28;16.83
46412;BME280;32113;42.012;24.870;2023-03-13T14:05:13;99375.34;;;17.14;17.19
46412;BME280;32113;42.012;24.870;2023-03-13T14:10:14;99379.44;;;17.22;17.05
46412;BME280;32113;42.012;24.870;2023-03-13T14:12:51;99379.19;;;17.29;17.20
46412;BME280;32113;42.012;24.870;2023-03-13T14:17:49;99378.81;;;17.40;16.48
46412;BME280;32113;42.012;24.870;2023-03-13T14:20:39;99379.53;;;17.45;16.69
46412;BME280;32113;42.012;24.870;2023-03-13T14:23:06;99371.75;;;17.45;16.80
46412;BME280;32113;42.012;24.870;2023-03-13T14:25:44;99366.25;;;17.55;17.09
46412;BME280;32113;42.012;24.870;2023-03-13T14:28:23;99371.06;;;17.66;16.45
46412;BME280;32113;42.012;24.870;2023-03-13T14:30:51;99372.75;;;17.67;16.67
46412;BME280;32113;42.012;24.870;2023-03-13T14:33:17;99374.13;;;17.77;16.69
46412;BME280;32113;42.012;24.870;2023-03-13T14:35:42;99370.84;;;17.72;16.38
46412;BME280;32113;42.012;24.870;2023-03-13T14:38:27;99367.00;;;17.82;16.58
46412;BME280;32113;42.012;24.870;2023-03-13T14:40:58;99364.22;;;17.89;16.56
46412;BME280;32113;42.012;24.870;2023-03-13T14:45:49;99362.41;;;17.91;16.58
46412;BME280;32113;42.012;24.870;2023-03-13T14:50:47;99362.63;;;17.84;16.42
46412;BME280;32113;42.012;24.870;2023-03-13T14:53:17;99362.50;;;17.88;16.48
46412;BME280;32113;42.012;24.870;2023-03-13T14:55:44;99363.75;;;17.77;16.40
46412;BME280;32113;42.012;24.870;2023-03-13T15:00:46;99368.25;;;17.72;17.50